sensor_id;sensor_type;location;lat;lon;timestamp;pressure;altitude;pressure_sealevel;temperature;humidity
47054;BME280;32811;52.382;5.270;2023-07-16T00:00:20;100784.75;;;14.59;100.00
47054;BME280;32811;52.382;5.270;2023-07-16T00:02:47;100786.50;;;14.57;100.00
47054;BME280;32811;52.382;5.270;2023-07-16T00:05:14;100792.47;;;14.65;100.00
47054;BME280;32811;52.382;5.270;2023-07-16T00:07:42;100771.63;;;14.70;100.00
47054;BME280;32811;52.382;5.270;2023-07-16T00:10:08;100782.03;;;14.68;100.00
47054;BME280;32811;52.382;5.270;2023-07-16T00:12:35;100779.50;;;14.65;100.00
47054;BME280;32811;52.382;5.270;2023-07-16T00:15:03;100786.31;;;14.74;100.00
47054;BME280;32811;52.382;5.270;2023-07-16T00:17:30;100782.09;;;14.64;100.00
47054;BME280;32811;52.382;5.270;2023-07-16T00:19:57;100775.31;;;14.52;100.00
47054;BME280;32811;52.382;5.270;2023-07-16T00:22:23;100791.75;;;14.52;100.00
47054;BME280;32811;52.382;5.270;2023-07-16T00:24:50;100784.06;;;14.45;100.00
47054;BME280;32811;52.382;5.270;2023-07-16T00:27:17;100763.34;;;14.40;100.00
47054;BME280;32811;52.382;5.270;2023-07-16T00:29:44;100780.47;;;14.55;100.00
47054;BME280;32811;52.382;5.270;2023-07-16T00:32:11;100789.03;;;14.63;100.00
47054;BME280;32811;52.382;5.270;2023-07-16T00:34:37;100783.94;;;14.56;100.00
47054;BME280;32811;52.382;5.270;2023-07-16T00:37:04;100763.16;;;14.56;100.00
47054;BME280;32811;52.382;5.270;2023-07-16T00:39:31;100776.69;;;14.81;100.00
47054;BME280;32811;52.382;5.270;2023-07-16T00:41:58;100784.56;;;14.73;100.00
47054;BME280;32811;52.382;5.270;2023-07-16T00:44:24;100773.44;;;14.65;100.00
47054;BME280;32811;52.382;5.270;2023-07-16T00:46:51;100777.75;;;14.66;100.00
47054;BME280;32811;52.382;5.270;2023-07-16T00:49:18;100779.34;;;14.76;100.00
47054;BME280;32811;52.382;5.270;2023-07-16T00:51:45;100777.56;;;14.80;100.00
47054;BME280;32811;52.382;5.270;2023-07-16T00:54:12;100795.78;;;14.78;100.00
47054;BME280;32811;52.382;5.270;2023-07-16T00:56:39;100781.06;;;14.77;100.00
47054;BME280;32811;52.382;5.270;2023-07-16T00:59:06;100791.19;;;14.95;100.00
47054;BME280;32811;52.382;5.270;2023-07-16T01:01:32;100788.50;;;15.00;100.00
47054;BME280;32811;52.382;5.270;2023-07-16T01:03:59;100779.91;;;14.98;100.00
47054;BME280;32811;52.382;5.270;2023-07-16T01:06:36;100787.88;;;14.86;100.00
47054;BME280;32811;52.382;5.270;2023-07-16T01:09:20;100791.56;;;14.68;100.00
47054;BME280;32811;52.382;5.270;2023-07-16T01:11:48;100786.25;;;14.76;100.00
47054;BME280;32811;52.382;5.270;2023-07-16T01:14:17;100759.63;;;14.61;100.00
47054;BME280;32811;52.382;5.270;2023-07-16T01:16:44;100784.50;;;14.79;100.00
47054;BME280;32811;52.382;5.270;2023-07-16T01:19:11;100781.97;;;14.73;100.00
47054;BME280;32811;52.382;5.270;2023-07-16T01:21:48;100787.72;;;14.98;100.00
47054;BME280;32811;52.382;5.270;2023-07-16T01:30:08;100792.34;;;14.74;100.00
47054;BME280;32811;52.382;5.270;2023-07-16T01:35:05;100782.88;;;14.72;100.00
47054;BME280;32811;52.382;5.270;2023-07-16T01:37:32;100781.97;;;14.73;100.00
47054;BME280;32811;52.382;5.270;2023-07-16T01:39:59;100772.56;;;14.64;100.00
47054;BME280;32811;52.382;5.270;2023-07-16T01:42:26;100775.84;;;14.80;100.00
47054;BME280;32811;52.382;5.270;2023-07-16T01:44:53;100762.78;;;14.85;100.00
47054;BME280;32811;52.382;5.270;2023-07-16T01:49:59;100778.25;;;14.92;100.00
47054;BME280;32811;52.382;5.270;2023-07-16T01:52:25;100790.22;;;15.03;100.00
47054;BME280;32811;52.382;5.270;2023-07-16T01:54:52;100787.72;;;14.95;100.00
47054;BME280;32811;52.382;5.270;2023-07-16T01:57:19;100788.78;;;14.82;100.00
47054;BME280;32811;52.382;5.270;2023-07-16T01:59:45;100792.34;;;14.76;100.00
47054;BME280;32811;52.382;5.270;2023-07-16T02:02:13;100792.13;;;14.91;100.00
47054;BME280;32811;52.382;5.270;2023-07-16T02:04:39;100786.72;;;15.05;100.00
47054;BME280;32811;52.382;5.270;2023-07-16T02:07:06;100778.09;;;15.02;100.00
47054;BME280;32811;52.382;5.270;2023-07-16T02:09:33;100795.47;;;15.00;100.00
47054;BME280;32811;52.382;5.270;2023-07-16T02:12:00;100793.75;;;14.99;100.00
47054;BME280;32811;52.382;5.270;2023-07-16T02:14:27;100785.09;;;14.98;100.00
47054;BME280;32811;52.382;5.270;2023-07-16T02:16:53;100767.00;;;14.92;100.00
47054;BME280;32811;52.382;5.270;2023-07-16T02:19:20;100775.47;;;15.05;100.00
47054;BME280;32811;52.382;5.270;2023-07-16T02:21:47;100775.41;;;15.08;100.00
47054;BME280;32811;52.382;5.270;2023-07-16T02:24:13;100785.50;;;15.29;100.00
47054;BME280;32811;52.382;5.270;2023-07-16T02:26:40;100773.69;;;15.07;100.00
47054;BME280;32811;52.382;5.270;2023-07-16T02:29:07;100755.75;;;14.91;100.00
47054;BME280;32811;52.382;5.270;2023-07-16T02:31:36;100765.09;;;15.02;100.00
47054;BME280;32811;52.382;5.270;2023-07-16T02:34:03;100791.00;;;15.09;100.00
47054;BME280;32811;52.382;5.270;2023-07-16T02:36:30;100784.06;;;15.08;100.00
47054;BME280;32811;52.382;5.270;2023-07-16T02:38:56;100788.34;;;15.14;100.00
47054;BME280;32811;52.382;5.270;2023-07-16T02:41:23;100789.16;;;15.16;100.00
47054;BME280;32811;52.382;5.270;2023-07-16T02:43:59;100783.09;;;15.15;100.00
47054;BME280;32811;52.382;5.270;2023-07-16T02:46:27;100771.75;;;15.21;100.00
47054;BME280;32811;52.382;5.270;2023-07-16T02:48:53;100779.63;;;15.15;100.00
47054;BME280;32811;52.382;5.270;2023-07-16T02:51:20;100773.28;;;15.34;100.00
47054;BME280;32811;52.382;5.270;2023-07-16T02:53:46;100782.13;;;15.23;100.00
47054;BME280;32811;52.382;5.270;2023-07-16T02:56:13;100784.09;;;15.07;100.00
47054;BME280;32811;52.382;5.270;2023-07-16T02:58:40;100770.13;;;15.14;100.00
47054;BME280;32811;52.382;5.270;2023-07-16T03:01:07;100782.84;;;15.31;100.00
47054;BME280;32811;52.382;5.270;2023-07-16T03:03:34;100782.94;;;15.25;100.00
47054;BME280;32811;52.382;5.270;2023-07-16T03:06:01;100789.94;;;15.21;100.00
47054;BME280;32811;52.382;5.270;2023-07-16T03:08:28;100795.31;;;15.10;100.00
47054;BME280;32811;52.382;5.270;2023-07-16T03:10:56;100795.31;;;15.10;100.00
47054;BME280;32811;52.382;5.270;2023-07-16T03:13:23;100796.09;;;15.15;100.00
47054;BME280;32811;52.382;5.270;2023-07-16T03:15:50;100797.03;;;15.11;100.00
47054;BME280;32811;52.382;5.270;2023-07-16T03:18:20;100795.38;;;15.07;100.00
47054;BME280;32811;52.382;5.270;2023-07-16T03:20:46;100801.56;;;14.99;100.00
47054;BME280;32811;52.382;5.270;2023-07-16T03:23:13;100812.84;;;14.96;100.00
47054;BME280;32811;52.382;5.270;2023-07-16T03:25:40;100813.38;;;15.20;100.00
47054;BME280;32811;52.382;5.270;2023-07-16T03:28:09;100811.72;;;15.14;100.00
47054;BME280;32811;52.382;5.270;2023-07-16T03:30:36;100809.81;;;15.25;100.00
47054;BME280;32811;52.382;5.270;2023-07-16T03:33:04;100821.13;;;15.23;100.00
47054;BME280;32811;52.382;5.270;2023-07-16T03:35:31;100821.84;;;15.31;100.00
47054;BME280;32811;52.382;5.270;2023-07-16T03:37:57;100809.84;;;15.24;100.00
47054;BME280;32811;52.382;5.270;2023-07-16T03:40:25;100815.72;;;15.35;100.00
47054;BME280;32811;52.382;5.270;2023-07-16T03:42:52;100815.72;;;15.35;100.00
47054;BME280;32811;52.382;5.270;2023-07-16T03:45:19;100811.28;;;15.42;100.00
47054;BME280;32811;52.382;5.270;2023-07-16T03:47:46;100804.47;;;15.36;100.00
47054;BME280;32811;52.382;5.270;2023-07-16T03:50:13;100820.16;;;15.30;100.00
47054;BME280;32811;52.382;5.270;2023-07-16T03:52:40;100817.69;;;15.21;100.00
47054;BME280;32811;52.382;5.270;2023-07-16T03:55:07;100828.94;;;15.21;100.00
47054;BME280;32811;52.382;5.270;2023-07-16T03:57:33;100824.59;;;15.22;100.00
47054;BME280;32811;52.382;5.270;2023-07-16T04:00:01;100835.81;;;15.25;100.00
47054;BME280;32811;52.382;5.270;2023-07-16T04:02:27;100838.59;;;15.13;100.00
47054;BME280;32811;52.382;5.270;2023-07-16T04:04:54;100839.22;;;15.30;100.00
47054;BME280;32811;52.382;5.270;2023-07-16T04:07:21;100844.34;;;15.33;100.00
47054;BME280;32811;52.382;5.270;2023-07-16T04:09:47;100844.28;;;15.38;100.00
47054;BME280;32811;52.382;5.270;2023-07-16T04:12:14;100845.72;;;15.57;100.00
47054;BME280;32811;52.382;5.270;2023-07-16T04:14:41;100849.97;;;15.63;100.00
47054;BME280;32811;52.382;5.270;2023-07-16T04:17:07;100853.41;;;15.65;100.00
47054;BME280;32811;52.382;5.270;2023-07-16T04:19:35;100848.75;;;15.86;100.00
47054;BME280;32811;52.382;5.270;2023-07-16T04:22:01;100841.16;;;15.73;100.00
47054;BME280;32811;52.382;5.270;2023-07-16T04:24:28;100852.28;;;15.83;100.00
47054;BME280;32811;52.382;5.270;2023-07-16T04:26:55;100841.06;;;15.78;100.00
47054;BME280;32811;52.382;5.270;2023-07-16T04:29:22;100837.41;;;15.90;100.00
47054;BME280;32811;52.382;5.270;2023-07-16T04:31:48;100849.41;;;15.98;100.00
47054;BME280;32811;52.382;5.270;2023-07-16T04:34:15;100848.59;;;15.93;100.00
47054;BME280;32811;52.382;5.270;2023-07-16T04:36:42;100852.88;;;15.97;100.00
47054;BME280;32811;52.382;5.270;2023-07-16T04:39:09;100860.69;;;15.99;100.00
47054;BME280;32811;52.382;5.270;2023-07-16T04:41:36;100854.56;;;16.02;100.00
47054;BME280;32811;52.382;5.270;2023-07-16T04:44:04;100856.31;;;16.01;100.00
47054;BME280;32811;52.382;5.270;2023-07-16T04:46:31;100858.81;;;16.06;100.00
47054;BME280;32811;52.382;5.270;2023-07-16T04:48:58;100865.03;;;15.98;100.00
47054;BME280;32811;52.382;5.270;2023-07-16T04:51:24;100863.09;;;16.10;100.00
47054;BME280;32811;52.382;5.270;2023-07-16T04:53:51;100869.91;;;16.17;100.00
47054;BME280;32811;52.382;5.270;2023-07-16T04:56:18;100870.81;;;16.14;100.00
47054;BME280;32811;52.382;5.270;2023-07-16T04:58:45;100868.22;;;16.14;100.00
47054;BME280;32811;52.382;5.270;2023-07-16T05:01:12;100871.84;;;16.06;100.00
47054;BME280;32811;52.382;5.270;2023-07-16T05:03:38;100876.03;;;16.14;100.00
47054;BME280;32811;52.382;5.270;2023-07-16T05:06:05;100881.09;;;16.21;100.00
47054;BME280;32811;52.382;5.270;2023-07-16T05:08:32;100875.81;;;16.25;100.00
47054;BME280;32811;52.382;5.270;2023-07-16T05:10:59;100855.63;;;16.36;100.00
47054;BME280;32811;52.382;5.270;2023-07-16T05:13:26;100863.31;;;16.44;100.00
47054;BME280;32811;52.382;5.270;2023-07-16T05:15:52;100878.88;;;16.47;100.00
47054;BME280;32811;52.382;5.270;2023-07-16T05:18:19;100880.22;;;16.67;100.00
47054;BME280;32811;52.382;5.270;2023-07-16T05:20:48;100889.44;;;16.85;100.00
47054;BME280;32811;52.382;5.270;2023-07-16T05:23:15;100870.69;;;17.08;100.00
47054;BME280;32811;52.382;5.270;2023-07-16T05:25:47;100870.84;;;17.39;100.00
47054;BME280;32811;52.382;5.270;2023-07-16T05:28:18;100870.81;;;17.78;100.00
47054;BME280;32811;52.382;5.270;2023-07-16T05:30:45;100881.16;;;18.17;100.00
47054;BME280;32811;52.382;5.270;2023-07-16T05:33:11;100877.41;;;18.58;100.00
47054;BME280;32811;52.382;5.270;2023-07-16T05:35:39;100877.59;;;17.87;100.00
47054;BME280;32811;52.382;5.270;2023-07-16T05:38:06;100891.78;;;17.37;100.00
47054;BME280;32811;52.382;5.270;2023-07-16T05:40:33;100900.91;;;17.18;100.00
47054;BME280;32811;52.382;5.270;2023-07-16T05:43:00;100901.19;;;17.45;100.00
47054;BME280;32811;52.382;5.270;2023-07-16T05:45:27;100901.28;;;18.13;100.00
47054;BME280;32811;52.382;5.270;2023-07-16T05:47:53;100901.50;;;18.38;100.00
47054;BME280;32811;52.382;5.270;2023-07-16T05:50:20;100885.56;;;18.48;100.00
47054;BME280;32811;52.382;5.270;2023-07-16T05:52:47;100902.13;;;18.79;100.00
47054;BME280;32811;52.382;5.270;2023-07-16T05:55:17;100908.44;;;19.02;100.00
47054;BME280;32811;52.382;5.270;2023-07-16T05:57:43;100889.97;;;19.06;100.00
47054;BME280;32811;52.382;5.270;2023-07-16T06:00:10;100896.56;;;19.20;100.00
47054;BME280;32811;52.382;5.270;2023-07-16T06:02:37;100906.41;;;19.40;100.00
47054;BME280;32811;52.382;5.270;2023-07-16T06:05:04;100907.69;;;19.26;100.00
47054;BME280;32811;52.382;5.270;2023-07-16T06:07:32;100909.25;;;19.34;100.00
47054;BME280;32811;52.382;5.270;2023-07-16T06:09:58;100913.59;;;19.61;100.00
47054;BME280;32811;52.382;5.270;2023-07-16T06:12:25;100924.91;;;19.62;100.00
47054;BME280;32811;52.382;5.270;2023-07-16T06:14:53;100921.56;;;19.58;100.00
47054;BME280;32811;52.382;5.270;2023-07-16T06:17:33;100930.56;;;19.78;100.00
47054;BME280;32811;52.382;5.270;2023-07-16T06:20:22;100916.25;;;19.88;100.00
47054;BME280;32811;52.382;5.270;2023-07-16T06:22:49;100899.50;;;20.19;100.00
47054;BME280;32811;52.382;5.270;2023-07-16T06:25:16;100906.34;;;20.23;100.00
47054;BME280;32811;52.382;5.270;2023-07-16T06:27:43;100924.59;;;20.26;100.00
47054;BME280;32811;52.382;5.270;2023-07-16T06:30:10;100907.66;;;20.36;100.00
47054;BME280;32811;52.382;5.270;2023-07-16T06:32:37;100921.75;;;20.32;100.00
47054;BME280;32811;52.382;5.270;2023-07-16T06:35:29;100930.09;;;20.43;100.00
47054;BME280;32811;52.382;5.270;2023-07-16T06:38:19;100902.22;;;20.66;100.00
47054;BME280;32811;52.382;5.270;2023-07-16T06:40:47;100929.81;;;20.76;100.00
47054;BME280;32811;52.382;5.270;2023-07-16T06:43:17;100897.69;;;20.46;100.00
47054;BME280;32811;52.382;5.270;2023-07-16T06:45:50;100902.28;;;20.64;100.00
47054;BME280;32811;52.382;5.270;2023-07-16T06:48:29;100919.31;;;20.76;100.00
47054;BME280;32811;52.382;5.270;2023-07-16T06:51:05;100899.38;;;20.72;100.00
47054;BME280;32811;52.382;5.270;2023-07-16T06:53:34;100907.00;;;20.78;100.00
47054;BME280;32811;52.382;5.270;2023-07-16T06:56:05;100947.63;;;20.68;100.00
47054;BME280;32811;52.382;5.270;2023-07-16T06:58:38;100948.81;;;20.59;100.00
47054;BME280;32811;52.382;5.270;2023-07-16T07:01:05;100961.88;;;20.34;100.00
47054;BME280;32811;52.382;5.270;2023-07-16T07:03:31;100960.47;;;19.70;100.00
47054;BME280;32811;52.382;5.270;2023-07-16T07:06:06;100971.88;;;19.69;100.00
47054;BME280;32811;52.382;5.270;2023-07-16T07:08:39;100934.50;;;19.63;100.00
47054;BME280;32811;52.382;5.270;2023-07-16T07:11:06;100977.34;;;19.60;100.00
47054;BME280;32811;52.382;5.270;2023-07-16T07:13:33;100947.00;;;20.09;100.00
47054;BME280;32811;52.382;5.270;2023-07-16T07:16:02;100934.72;;;20.62;100.00
47054;BME280;32811;52.382;5.270;2023-07-16T07:18:33;100950.00;;;20.49;100.00
47054;BME280;32811;52.382;5.270;2023-07-16T07:21:03;100961.88;;;20.34;100.00
47054;BME280;32811;52.382;5.270;2023-07-16T07:23:35;100993.06;;;20.42;100.00
47054;BME280;32811;52.382;5.270;2023-07-16T07:26:02;100961.47;;;20.20;100.00
47054;BME280;32811;52.382;5.270;2023-07-16T07:28:36;100971.41;;;20.37;100.00
47054;BME280;32811;52.382;5.270;2023-07-16T07:31:03;100986.06;;;19.61;100.00
47054;BME280;32811;52.382;5.270;2023-07-16T07:33:29;100968.34;;;19.41;100.00
47054;BME280;32811;52.382;5.270;2023-07-16T07:35:58;100972.06;;;20.43;100.00
47054;BME280;32811;52.382;5.270;2023-07-16T07:38:25;100984.59;;;21.09;100.00
47054;BME280;32811;52.382;5.270;2023-07-16T07:40:52;100975.88;;;21.08;100.00
47054;BME280;32811;52.382;5.270;2023-07-16T07:43:18;100985.53;;;21.08;100.00
47054;BME280;32811;52.382;5.270;2023-07-16T07:45:45;101009.53;;;20.97;100.00
47054;BME280;32811;52.382;5.270;2023-07-16T07:48:13;100988.59;;;21.19;100.00
47054;BME280;32811;52.382;5.270;2023-07-16T07:50:41;100998.56;;;21.09;100.00
47054;BME280;32811;52.382;5.270;2023-07-16T07:53:08;100998.84;;;20.51;100.00
47054;BME280;32811;52.382;5.270;2023-07-16T07:55:46;100980.94;;;19.86;100.00
47054;BME280;32811;52.382;5.270;2023-07-16T07:58:18;100976.81;;;19.79;100.00
47054;BME280;32811;52.382;5.270;2023-07-16T08:01:08;100997.63;;;19.54;100.00
47054;BME280;32811;52.382;5.270;2023-07-16T08:03:37;100995.50;;;19.37;100.00
47054;BME280;32811;52.382;5.270;2023-07-16T08:06:12;101001.34;;;19.15;100.00
47054;BME280;32811;52.382;5.270;2023-07-16T08:08:42;100996.66;;;19.26;100.00
47054;BME280;32811;52.382;5.270;2023-07-16T08:11:13;100995.50;;;19.07;100.00
47054;BME280;32811;52.382;5.270;2023-07-16T08:13:43;101011.38;;;19.01;100.00
47054;BME280;32811;52.382;5.270;2023-07-16T08:16:29;101007.41;;;19.17;100.00
47054;BME280;32811;52.382;5.270;2023-07-16T08:19:30;100998.28;;;20.17;100.00
47054;BME280;32811;52.382;5.270;2023-07-16T08:22:08;101022.44;;;20.51;100.00
47054;BME280;32811;52.382;5.270;2023-07-16T08:24:47;101008.13;;;20.37;100.00
47054;BME280;32811;52.382;5.270;2023-07-16T08:27:18;101019.25;;;20.43;100.00
47054;BME280;32811;52.382;5.270;2023-07-16T08:30:04;101029.00;;;20.38;100.00
47054;BME280;32811;52.382;5.270;2023-07-16T08:33:15;101022.84;;;20.14;100.00
47054;BME280;32811;52.382;5.270;2023-07-16T08:36:15;101008.13;;;19.82;100.00
47054;BME280;32811;52.382;5.270;2023-07-16T08:39:26;101006.13;;;19.90;100.00
47054;BME280;32811;52.382;5.270;2023-07-16T08:42:01;101032.19;;;20.48;100.00
47054;BME280;32811;52.382;5.270;2023-07-16T08:44:35;101036.16;;;20.06;100.00
47054;BME280;32811;52.382;5.270;2023-07-16T08:47:27;101023.59;;;19.60;100.00
47054;BME280;32811;52.382;5.270;2023-07-16T08:49:58;101035.16;;;19.82;100.00
47054;BME280;32811;52.382;5.270;2023-07-16T08:52:51;101027.25;;;19.24;100.00
47054;BME280;32811;52.382;5.270;2023-07-16T08:55:34;101037.66;;;18.96;100.00
47054;BME280;32811;52.382;5.270;2023-07-16T08:58:09;101031.50;;;18.97;100.00
47054;BME280;32811;52.382;5.270;2023-07-16T09:00:47;101029.16;;;20.07;100.00
47054;BME280;32811;52.382;5.270;2023-07-16T09:03:25;101047.16;;;20.44;100.00
47054;BME280;32811;52.382;5.270;2023-07-16T09:05:56;101035.19;;;20.37;100.00
47054;BME280;32811;52.382;5.270;2023-07-16T09:08:26;101059.94;;;20.00;100.00
47054;BME280;32811;52.382;5.270;2023-07-16T09:12:05;101052.09;;;20.00;100.00
47054;BME280;32811;52.382;5.270;2023-07-16T09:14:45;101070.72;;;20.19;100.00
47054;BME280;32811;52.382;5.270;2023-07-16T09:20:41;101066.09;;;21.29;100.00
47054;BME280;32811;52.382;5.270;2023-07-16T09:23:38;101053.81;;;21.55;100.00
47054;BME280;32811;52.382;5.270;2023-07-16T09:26:23;101068.66;;;20.82;100.00
47054;BME280;32811;52.382;5.270;2023-07-16T09:28:55;101073.28;;;20.74;100.00
47054;BME280;32811;52.382;5.270;2023-07-16T09:34:33;101089.75;;;20.79;100.00
47054;BME280;32811;52.382;5.270;2023-07-16T09:37:10;101071.34;;;20.54;100.00
47054;BME280;32811;52.382;5.270;2023-07-16T09:39:46;101074.09;;;20.49;100.00
47054;BME280;32811;52.382;5.270;2023-07-16T09:42:13;101084.69;;;20.46;100.00
47054;BME280;32811;52.382;5.270;2023-07-16T09:44:46;101086.09;;;20.30;100.00
47054;BME280;32811;52.382;5.270;2023-07-16T09:47:15;101095.13;;;21.01;100.00
47054;BME280;32811;52.382;5.270;2023-07-16T09:50:30;101083.28;;;21.85;100.00
47054;BME280;32811;52.382;5.270;2023-07-16T09:53:04;101079.22;;;21.54;100.00
47054;BME280;32811;52.382;5.270;2023-07-16T09:55:48;101092.00;;;21.39;100.00
47054;BME280;32811;52.382;5.270;2023-07-16T09:58:21;101107.19;;;21.05;100.00
47054;BME280;32811;52.382;5.270;2023-07-16T10:04:19;101097.16;;;20.93;100.00
47054;BME280;32811;52.382;5.270;2023-07-16T10:07:17;101112.34;;;21.33;100.00
47054;BME280;32811;52.382;5.270;2023-07-16T10:10:07;101094.16;;;21.27;100.00
47054;BME280;32811;52.382;5.270;2023-07-16T10:12:56;101098.94;;;21.16;100.00
47054;BME280;32811;52.382;5.270;2023-07-16T10:15:26;101140.38;;;21.08;100.00
47054;BME280;32811;52.382;5.270;2023-07-16T10:17:54;101147.00;;;20.93;100.00
47054;BME280;32811;52.382;5.270;2023-07-16T10:20:39;101143.97;;;20.52;100.00
47054;BME280;32811;52.382;5.270;2023-07-16T10:23:13;101139.22;;;20.07;100.00
47054;BME280;32811;52.382;5.270;2023-07-16T10:25:40;101161.94;;;19.78;100.00
47054;BME280;32811;52.382;5.270;2023-07-16T10:28:07;101164.31;;;19.53;100.00
47054;BME280;32811;52.382;5.270;2023-07-16T10:30:34;101164.75;;;19.70;100.00
47054;BME280;32811;52.382;5.270;2023-07-16T10:33:19;101164.44;;;19.81;100.00
47054;BME280;32811;52.382;5.270;2023-07-16T10:35:46;101176.00;;;20.04;100.00
47054;BME280;32811;52.382;5.270;2023-07-16T10:38:13;101182.75;;;20.13;100.00
47054;BME280;32811;52.382;5.270;2023-07-16T10:40:44;101173.44;;;20.60;100.00
47054;BME280;32811;52.382;5.270;2023-07-16T10:43:12;101165.41;;;21.43;100.00
47054;BME280;32811;52.382;5.270;2023-07-16T10:45:39;101176.84;;;21.42;100.00
47054;BME280;32811;52.382;5.270;2023-07-16T10:48:06;101183.03;;;21.14;100.00
47054;BME280;32811;52.382;5.270;2023-07-16T10:50:34;101152.59;;;20.82;100.00
47054;BME280;32811;52.382;5.270;2023-07-16T10:53:01;101135.84;;;20.60;100.00
47054;BME280;32811;52.382;5.270;2023-07-16T10:55:29;101146.81;;;20.44;100.00
47054;BME280;32811;52.382;5.270;2023-07-16T10:57:56;101138.28;;;20.09;100.00
47054;BME280;32811;52.382;5.270;2023-07-16T11:00:23;101163.59;;;19.81;100.00
47054;BME280;32811;52.382;5.270;2023-07-16T11:05:19;101149.38;;;21.51;100.00
47054;BME280;32811;52.382;5.270;2023-07-16T11:07:47;101157.97;;;21.80;100.00
47054;BME280;32811;52.382;5.270;2023-07-16T11:10:20;101184.53;;;21.95;100.00
47054;BME280;32811;52.382;5.270;2023-07-16T11:12:51;101160.28;;;22.11;100.00
47054;BME280;32811;52.382;5.270;2023-07-16T11:15:33;101198.53;;;22.20;100.00
47054;BME280;32811;52.382;5.270;2023-07-16T11:18:02;101176.34;;;22.03;100.00
47054;BME280;32811;52.382;5.270;2023-07-16T11:20:30;101157.56;;;21.90;100.00
47054;BME280;32811;52.382;5.270;2023-07-16T11:23:01;101179.22;;;21.73;100.00
47054;BME280;32811;52.382;5.270;2023-07-16T11:25:28;101165.53;;;21.39;100.00
47054;BME280;32811;52.382;5.270;2023-07-16T11:27:56;101180.06;;;20.99;100.00
47054;BME280;32811;52.382;5.270;2023-07-16T11:30:24;101203.88;;;21.19;100.00
47054;BME280;32811;52.382;5.270;2023-07-16T11:32:51;101200.84;;;21.05;100.00
47054;BME280;32811;52.382;5.270;2023-07-16T11:35:19;101187.69;;;21.31;100.00
47054;BME280;32811;52.382;5.270;2023-07-16T11:37:47;101206.38;;;21.22;100.00
47054;BME280;32811;52.382;5.270;2023-07-16T11:42:50;101214.25;;;21.22;100.00
47054;BME280;32811;52.382;5.270;2023-07-16T11:45:25;101228.19;;;20.98;100.00
47054;BME280;32811;52.382;5.270;2023-07-16T11:47:53;101228.56;;;20.59;100.00
47054;BME280;32811;52.382;5.270;2023-07-16T11:50:20;101203.88;;;20.36;100.00
47054;BME280;32811;52.382;5.270;2023-07-16T11:52:54;101234.22;;;20.15;100.00
47054;BME280;32811;52.382;5.270;2023-07-16T11:55:22;101245.13;;;20.00;100.00
47054;BME280;32811;52.382;5.270;2023-07-16T11:57:49;101246.78;;;20.02;100.00
47054;BME280;32811;52.382;5.270;2023-07-16T12:00:16;101246.72;;;20.05;100.00
47054;BME280;32811;52.382;5.270;2023-07-16T12:03:03;101251.72;;;20.43;100.00
47054;BME280;32811;52.382;5.270;2023-07-16T12:05:30;101252.47;;;20.48;100.00
47054;BME280;32811;52.382;5.270;2023-07-16T12:08:16;101216.78;;;20.42;100.00
47054;BME280;32811;52.382;5.270;2023-07-16T12:10:43;101247.47;;;20.70;100.00
47054;BME280;32811;52.382;5.270;2023-07-16T12:13:10;101236.31;;;21.43;100.00
47054;BME280;32811;52.382;5.270;2023-07-16T12:15:36;101242.81;;;21.58;100.00
47054;BME280;32811;52.382;5.270;2023-07-16T12:18:03;101251.50;;;21.60;100.00
47054;BME280;32811;52.382;5.270;2023-07-16T12:20:30;101232.63;;;21.49;100.00
47054;BME280;32811;52.382;5.270;2023-07-16T12:22:58;101235.16;;;22.01;100.00
47054;BME280;32811;52.382;5.270;2023-07-16T12:25:28;101249.66;;;21.87;100.00
47054;BME280;32811;52.382;5.270;2023-07-16T12:27:55;101260.78;;;21.70;100.00
47054;BME280;32811;52.382;5.270;2023-07-16T12:30:24;101220.81;;;21.35;100.00
47054;BME280;32811;52.382;5.270;2023-07-16T12:32:52;101262.53;;;21.45;100.00
47054;BME280;32811;52.382;5.270;2023-07-16T12:35:19;101260.06;;;21.39;100.00
47054;BME280;32811;52.382;5.270;2023-07-16T12:37:45;101255.56;;;21.69;99.03
47054;BME280;32811;52.382;5.270;2023-07-16T12:40:12;101244.59;;;21.58;100.00
47054;BME280;32811;52.382;5.270;2023-07-16T12:42:39;101271.81;;;21.28;100.00
47054;BME280;32811;52.382;5.270;2023-07-16T12:45:07;101261.13;;;21.34;100.00
47054;BME280;32811;52.382;5.270;2023-07-16T12:47:34;101286.06;;;21.21;100.00
47054;BME280;32811;52.382;5.270;2023-07-16T12:50:04;101263.13;;;21.00;100.00
47054;BME280;32811;52.382;5.270;2023-07-16T12:52:31;101278.75;;;21.03;100.00
47054;BME280;32811;52.382;5.270;2023-07-16T12:54:58;101266.72;;;20.97;100.00
47054;BME280;32811;52.382;5.270;2023-07-16T12:57:25;101269.34;;;21.24;100.00
47054;BME280;32811;52.382;5.270;2023-07-16T12:59:51;101269.88;;;21.33;100.00
47054;BME280;32811;52.382;5.270;2023-07-16T13:02:18;101283.50;;;21.46;99.98
47054;BME280;32811;52.382;5.270;2023-07-16T13:04:45;101289.78;;;21.67;100.00
47054;BME280;32811;52.382;5.270;2023-07-16T13:07:12;101271.06;;;21.51;97.31
47054;BME280;32811;52.382;5.270;2023-07-16T13:09:39;101297.16;;;21.56;97.47
47054;BME280;32811;52.382;5.270;2023-07-16T13:12:06;101290.75;;;21.65;98.73
47054;BME280;32811;52.382;5.270;2023-07-16T13:14:33;101283.38;;;21.74;100.00
47054;BME280;32811;52.382;5.270;2023-07-16T13:17:00;101292.75;;;22.32;94.75
47054;BME280;32811;52.382;5.270;2023-07-16T13:19:28;101262.75;;;22.37;88.54
47054;BME280;32811;52.382;5.270;2023-07-16T13:21:55;101286.00;;;22.25;88.95